createdAt,value
2023-04-30T00:01:02.167Z,145138.31
2023-04-30T00:03:29.315Z,145128.59
2023-04-30T00:05:56.426Z,145111.59
2023-04-30T00:08:23.784Z,145087.31
2023-04-30T00:10:51.666Z,145077.63
2023-04-30T00:13:19.009Z,145030.34
2023-04-30T00:15:46.128Z,145058.22
2023-04-30T00:18:13.245Z,145081.25
2023-04-30T00:20:40.407Z,145087.31
2023-04-30T00:23:07.428Z,145067.91
2023-04-30T00:25:35.398Z,145075.22
2023-04-30T00:28:02.461Z,145021.84
2023-04-30T00:30:29.509Z,145041.22
2023-04-30T00:32:56.569Z,145009.69
2023-04-30T00:35:23.709Z,144967.28
2023-04-30T00:37:50.726Z,144898.16
2023-04-30T00:40:17.849Z,144917.56
2023-04-30T00:42:45.088Z,144936.94
2023-04-30T00:45:12.137Z,144949.09
2023-04-30T00:47:40.512Z,144963.63
2023-04-30T00:50:07.807Z,144907.88
2023-04-30T00:52:34.944Z,144909.06
2023-04-30T00:55:02.326Z,144929.69
2023-04-30T00:57:29.354Z,144906.66
2023-04-30T00:59:56.787Z,144904.22
2023-04-30T01:02:24.534Z,144865.44
2023-04-30T01:04:51.932Z,144838.78
2023-04-30T01:07:18.999Z,144901.81
2023-04-30T01:09:46.254Z,144888.47
2023-04-30T01:12:21.683Z,144869.06
2023-04-30T01:15:29.194Z,144859.34
2023-04-30T01:18:02.501Z,144842.41
2023-04-30T01:20:31.005Z,144837.56
2023-04-30T01:23:14.366Z,144808.47
2023-04-30T01:25:58.399Z,144787.88
2023-04-30T01:28:26.088Z,144787.88
2023-04-30T01:30:53.239Z,144743.03
2023-04-30T01:33:20.651Z,144772.09
2023-04-30T01:36:15.817Z,144781.78
2023-04-30T01:39:08.478Z,144756.38
2023-04-30T01:41:58.428Z,144730.91
2023-04-30T01:44:53.492Z,144755.13
2023-04-30T01:47:40.520Z,144745.44
2023-04-30T01:50:13.345Z,144740.59
2023-04-30T01:52:46.716Z,144745.44
2023-04-30T01:55:43.000Z,144762.41
2023-04-30T01:58:13.211Z,144766.06
2023-04-30T02:00:40.922Z,144774.56
2023-04-30T02:03:08.387Z,144764.88
2023-04-30T02:05:35.478Z,144761.22
2023-04-30T02:08:03.162Z,144759.97
2023-04-30T02:10:30.644Z,144763.63
2023-04-30T02:12:57.782Z,144728.50
2023-04-30T02:15:24.805Z,144779.41
2023-04-30T02:17:51.955Z,144762.41
2023-04-30T02:20:19.110Z,144819.41
2023-04-30T02:22:46.618Z,144837.56
2023-04-30T02:25:14.123Z,144747.88
2023-04-30T02:27:41.171Z,144766.06
2023-04-30T02:30:08.530Z,144796.31
2023-04-30T02:32:35.843Z,144705.44
2023-04-30T02:35:03.062Z,144721.22
2023-04-30T02:37:30.256Z,144755.13
2023-04-30T02:39:57.631Z,144716.38
2023-04-30T02:42:26.026Z,144738.19
2023-04-30T02:44:53.048Z,144689.72
2023-04-30T02:47:20.181Z,144733.34
2023-04-30T02:49:47.292Z,144721.22
2023-04-30T02:52:14.337Z,144747.88
2023-04-30T02:54:41.432Z,144757.56
2023-04-30T02:57:08.448Z,144718.78
2023-04-30T02:59:35.509Z,144699.41
2023-04-30T03:02:02.731Z,144718.78
2023-04-30T03:04:30.658Z,144718.78
2023-04-30T03:06:57.663Z,144711.53
2023-04-30T03:09:24.713Z,144688.53
2023-04-30T03:11:51.797Z,144675.19
2023-04-30T03:14:18.897Z,144706.69
2023-04-30T03:16:46.039Z,144718.78
2023-04-30T03:19:13.181Z,144699.41
2023-04-30T03:21:41.043Z,144650.91
2023-04-30T03:24:08.255Z,144711.53
2023-04-30T03:26:35.402Z,144692.16
2023-04-30T03:29:02.529Z,144677.59
2023-04-30T03:31:29.577Z,144629.13
2023-04-30T03:33:56.616Z,144675.19
2023-04-30T03:36:23.885Z,144658.19
2023-04-30T03:38:51.134Z,144658.19
2023-04-30T03:41:18.701Z,144629.13
2023-04-30T03:43:46.238Z,144646.06
2023-04-30T03:46:13.224Z,144646.06
2023-04-30T03:48:40.336Z,144610.97
2023-04-30T03:51:07.509Z,144583.09
2023-04-30T03:53:34.499Z,144617.00
2023-04-30T03:56:01.991Z,144635.16
2023-04-30T03:58:29.907Z,144607.31
2023-04-30T04:00:57.134Z,144624.28
2023-04-30T04:03:24.413Z,144570.97
2023-04-30T04:05:51.492Z,144602.47
2023-04-30T04:08:18.557Z,144650.91
2023-04-30T04:10:45.741Z,144597.63
2023-04-30T04:13:12.873Z,144589.16
2023-04-30T04:15:40.604Z,144532.22
2023-04-30T04:18:08.580Z,144474.13
2023-04-30T04:20:36.266Z,144510.44
2023-04-30T04:23:03.571Z,144504.38
2023-04-30T04:25:30.546Z,144478.97
2023-04-30T04:27:57.659Z,144482.56
2023-04-30T04:30:24.867Z,144534.66
2023-04-30T04:32:53.893Z,144515.28
2023-04-30T04:35:21.176Z,144521.34
2023-04-30T04:37:48.463Z,144551.63
2023-04-30T04:40:15.563Z,144527.38
2023-04-30T04:42:42.567Z,144541.88
2023-04-30T04:45:09.886Z,144500.72
2023-04-30T04:47:38.051Z,144478.97
2023-04-30T04:50:05.625Z,144529.81
2023-04-30T04:52:32.773Z,144523.72
2023-04-30T04:54:59.793Z,144483.81
2023-04-30T04:57:27.035Z,144491.03
2023-04-30T04:59:54.413Z,144481.38
2023-04-30T05:02:23.360Z,144478.97
2023-04-30T05:04:51.431Z,144446.25
2023-04-30T05:07:19.652Z,144512.84
2023-04-30T05:09:46.989Z,144512.84
2023-04-30T05:12:14.773Z,144549.19
2023-04-30T05:14:42.911Z,144558.84
2023-04-30T05:17:10.116Z,144562.50
2023-04-30T05:19:37.138Z,144601.28
2023-04-30T05:22:04.784Z,144546.78
2023-04-30T05:24:31.821Z,144515.28
2023-04-30T05:26:58.896Z,144537.06
2023-04-30T05:29:25.888Z,144577.03
2023-04-30T05:31:53.020Z,144512.84
2023-04-30T05:34:20.299Z,144522.53
2023-04-30T05:36:47.388Z,144592.78
2023-04-30T05:39:14.377Z,144568.53
2023-04-30T05:41:41.365Z,144500.72
2023-04-30T05:44:08.406Z,144533.47
2023-04-30T05:46:35.624Z,144598.84
2023-04-30T05:49:02.680Z,144630.31
2023-04-30T05:51:29.732Z,144636.38
2023-04-30T05:53:57.534Z,144684.88
2023-04-30T05:56:25.190Z,144670.34
2023-04-30T05:58:52.560Z,144711.53
2023-04-30T06:01:20.979Z,144672.75
2023-04-30T06:03:48.017Z,144749.09
2023-04-30T06:06:15.229Z,144761.22
2023-04-30T06:08:45.086Z,144855.75
2023-04-30T06:11:13.029Z,144786.63
2023-04-30T06:13:40.563Z,144796.31
2023-04-30T06:16:08.338Z,144789.09
2023-04-30T06:18:35.685Z,144783.03
2023-04-30T06:21:02.824Z,144767.25
2023-04-30T06:23:29.998Z,144787.88
2023-04-30T06:25:57.062Z,144745.44
2023-04-30T06:28:24.216Z,144792.72
2023-04-30T06:30:52.028Z,144796.31
2023-04-30T06:33:19.101Z,144896.97
2023-04-30T06:35:46.467Z,144898.16
2023-04-30T06:38:14.224Z,144944.22
2023-04-30T06:40:41.273Z,144941.78
2023-04-30T06:43:08.282Z,144920.00
2023-04-30T06:45:35.583Z,144997.59
2023-04-30T06:48:02.825Z,144957.56
2023-04-30T06:50:29.978Z,145004.84
2023-04-30T06:52:56.993Z,145007.28
2023-04-30T06:55:24.773Z,145021.84
2023-04-30T06:57:52.061Z,145114.00
2023-04-30T07:00:19.149Z,145128.59
2023-04-30T07:02:47.954Z,145169.84
2023-04-30T07:05:16.092Z,145162.53
2023-04-30T07:07:43.217Z,145211.09
2023-04-30T07:10:10.531Z,145281.50
2023-04-30T07:12:37.570Z,145340.97
2023-04-30T07:15:04.875Z,145300.91
2023-04-30T07:17:31.970Z,145327.63
2023-04-30T07:19:59.061Z,145364.03
2023-04-30T07:22:26.131Z,145399.25
2023-04-30T07:24:53.144Z,145435.69
2023-04-30T07:27:20.330Z,145441.75
2023-04-30T07:29:47.361Z,145526.78
2023-04-30T07:32:15.160Z,145568.06
2023-04-30T07:34:42.669Z,145589.94
2023-04-30T07:37:09.889Z,145631.25
2023-04-30T07:39:37.325Z,145628.78
2023-04-30T07:42:04.730Z,145730.94
2023-04-30T07:44:31.982Z,145763.75
2023-04-30T07:46:58.976Z,145806.28
2023-04-30T07:49:26.186Z,145851.25
2023-04-30T07:51:53.275Z,145913.28
2023-04-30T07:54:20.310Z,145898.69
2023-04-30T07:56:48.837Z,145976.53
2023-04-30T07:59:16.025Z,145986.25
2023-04-30T08:01:43.208Z,145994.78
2023-04-30T08:04:10.681Z,146037.31
2023-04-30T08:06:37.859Z,146107.91
2023-04-30T08:09:04.905Z,146159.06
2023-04-30T08:11:31.909Z,146142.00
2023-04-30T08:13:58.901Z,146151.72
2023-04-30T08:16:25.959Z,146206.50
2023-04-30T08:18:54.382Z,146171.19
2023-04-30T08:21:21.639Z,146212.56
2023-04-30T08:23:48.659Z,146234.47
2023-04-30T08:26:15.688Z,146285.59
2023-04-30T08:28:42.725Z,146266.13
2023-04-30T08:31:09.890Z,146351.34
2023-04-30T08:33:36.942Z,146400.03
2023-04-30T08:36:04.253Z,146442.72
2023-04-30T08:38:31.302Z,146434.19
2023-04-30T08:41:11.323Z,146463.41
2023-04-30T08:43:39.193Z,146514.56
2023-04-30T08:46:07.219Z,146476.81
2023-04-30T08:48:34.705Z,146541.38
2023-04-30T08:51:03.157Z,146512.16
2023-04-30T08:53:31.612Z,146597.44
2023-04-30T08:55:59.020Z,146627.88
2023-04-30T08:58:26.055Z,146560.88
2023-04-30T09:00:53.069Z,146545.03
2023-04-30T09:03:22.115Z,146564.50
2023-04-30T09:05:49.212Z,146563.31
2023-04-30T09:08:46.853Z,146604.72
2023-04-30T09:11:27.524Z,146648.59
2023-04-30T09:13:59.701Z,146743.72
2023-04-30T09:16:31.293Z,146780.28
2023-04-30T09:18:59.576Z,146785.16
2023-04-30T09:21:34.712Z,146840.00
2023-04-30T09:24:03.867Z,146854.63
2023-04-30T09:26:36.552Z,146816.84
2023-04-30T09:29:07.911Z,146753.47
2023-04-30T09:31:36.349Z,146716.91
2023-04-30T09:34:04.741Z,146755.88
2023-04-30T09:36:32.403Z,146807.06
2023-04-30T09:39:09.888Z,146819.25
2023-04-30T09:41:37.966Z,146853.44
2023-04-30T09:44:05.407Z,146886.34
2023-04-30T09:46:34.717Z,146994.94
2023-04-30T09:49:03.807Z,147032.72
2023-04-30T09:51:31.752Z,147041.28
2023-04-30T09:54:02.757Z,147063.19
2023-04-30T09:56:35.364Z,147115.69
2023-04-30T09:59:04.418Z,147053.44
2023-04-30T10:01:33.342Z,147070.53
2023-04-30T10:04:01.218Z,146968.06
2023-04-30T10:06:29.756Z,147009.56
2023-04-30T10:08:57.948Z,146953.38
2023-04-30T10:11:28.302Z,146950.97
2023-04-30T10:14:02.729Z,146943.63
2023-04-30T10:17:07.352Z,146946.09
2023-04-30T10:19:39.141Z,146886.34
2023-04-30T10:22:06.312Z,146924.13
2023-04-30T10:24:34.574Z,146843.63
2023-04-30T10:27:01.692Z,146890.00
2023-04-30T10:29:28.780Z,146952.16
2023-04-30T10:31:56.961Z,146930.22
2023-04-30T10:34:53.275Z,146958.28
2023-04-30T10:37:45.182Z,146919.25
2023-04-30T10:40:12.632Z,146907.03
2023-04-30T10:42:45.864Z,146970.47
2023-04-30T10:45:12.929Z,146936.34
2023-04-30T10:47:43.106Z,147010.78
2023-04-30T10:50:10.763Z,147020.50
2023-04-30T10:52:39.150Z,147129.09
2023-04-30T10:55:09.276Z,147151.06
2023-04-30T10:57:43.741Z,147143.75
2023-04-30T11:00:10.905Z,147107.13
2023-04-30T11:02:47.162Z,147193.78
2023-04-30T11:05:15.572Z,147245.03
2023-04-30T11:07:56.839Z,147309.75
2023-04-30T11:10:27.333Z,147345.16
2023-04-30T11:12:55.672Z,147365.94
2023-04-30T11:15:27.365Z,147436.75
2023-04-30T11:17:59.486Z,147550.38
2023-04-30T11:20:26.970Z,147517.41
2023-04-30T11:23:19.751Z,147501.50
2023-04-30T11:25:59.114Z,147456.28
2023-04-30T11:28:27.412Z,147436.75
2023-04-30T11:30:59.637Z,147380.59
2023-04-30T11:33:29.131Z,147396.44
2023-04-30T11:35:58.188Z,147412.34
2023-04-30T11:38:36.355Z,147473.38
2023-04-30T11:41:04.935Z,147473.38
2023-04-30T11:43:34.326Z,147518.63
2023-04-30T11:46:08.245Z,147446.50
2023-04-30T11:48:37.515Z,147519.81
2023-04-30T11:51:25.133Z,147525.91
2023-04-30T11:53:53.425Z,147431.88
2023-04-30T11:56:25.493Z,147467.28
2023-04-30T11:58:53.841Z,147502.72
2023-04-30T12:01:21.536Z,147478.25
2023-04-30T12:03:50.843Z,147409.88
2023-04-30T12:06:26.170Z,147511.28
2023-04-30T12:08:54.745Z,147503.97
2023-04-30T12:11:29.762Z,147554.06
2023-04-30T12:14:05.412Z,147596.78
2023-04-30T12:16:53.198Z,147644.41
2023-04-30T12:19:25.035Z,147664.00
2023-04-30T12:21:55.011Z,147495.41
2023-04-30T12:24:23.529Z,147470.91
2023-04-30T12:26:53.732Z,147447.72
2023-04-30T12:29:23.057Z,147450.19
2023-04-30T12:31:52.343Z,147473.38
2023-04-30T12:34:19.493Z,147555.25
2023-04-30T12:36:46.562Z,147613.91
2023-04-30T12:39:17.999Z,147701.88
2023-04-30T12:41:49.569Z,147788.69
2023-04-30T12:44:20.868Z,147722.66
2023-04-30T12:46:49.262Z,147781.34
2023-04-30T12:49:29.932Z,147818.00
2023-04-30T12:52:01.859Z,147800.88
2023-04-30T12:54:30.721Z,147808.22
2023-04-30T12:57:07.445Z,147782.53
2023-04-30T12:59:51.690Z,147783.81
2023-04-30T13:02:19.317Z,147752.03
2023-04-30T13:04:46.400Z,147687.22
2023-04-30T13:07:13.484Z,147627.34
2023-04-30T13:09:40.736Z,147644.41
2023-04-30T13:12:07.793Z,147695.78
2023-04-30T13:14:35.200Z,147767.88
2023-04-30T13:17:05.611Z,147749.56
2023-04-30T13:19:33.997Z,147698.19
2023-04-30T13:22:01.731Z,147634.66
2023-04-30T13:24:28.891Z,147617.53
2023-04-30T13:26:57.711Z,147670.09
2023-04-30T13:29:25.314Z,147742.25
2023-04-30T13:31:52.437Z,147791.09
2023-04-30T13:34:19.571Z,147853.47
2023-04-30T13:36:46.807Z,147871.81
2023-04-30T13:39:14.008Z,147871.81
2023-04-30T13:41:41.003Z,147925.59
2023-04-30T13:44:09.413Z,147854.69
2023-04-30T13:46:36.450Z,147783.81
2023-04-30T13:49:03.551Z,147760.59
2023-04-30T13:51:30.739Z,147725.13
2023-04-30T13:53:57.992Z,147745.88
2023-04-30T13:56:25.533Z,147778.91
2023-04-30T13:58:52.650Z,147830.25
2023-04-30T14:01:19.747Z,148018.56
2023-04-30T14:03:47.201Z,148018.56
2023-04-30T14:06:14.556Z,147887.69
2023-04-30T14:08:41.680Z,147716.53
2023-04-30T14:11:08.688Z,147601.66
2023-04-30T14:13:35.783Z,147576.00
2023-04-30T14:16:02.930Z,147522.28
2023-04-30T14:18:29.989Z,147510.06
2023-04-30T14:20:57.030Z,147500.28
2023-04-30T14:23:24.036Z,147519.81
2023-04-30T14:25:51.164Z,147538.16
2023-04-30T14:28:18.203Z,147580.88
2023-04-30T14:30:45.385Z,147585.81
2023-04-30T14:33:12.699Z,147626.09
2023-04-30T14:35:41.463Z,147725.13
2023-04-30T14:38:08.499Z,147804.56
2023-04-30T14:40:35.562Z,147808.22
2023-04-30T14:43:02.537Z,147846.13
2023-04-30T14:45:29.879Z,147802.13
2023-04-30T14:47:56.959Z,147747.13
2023-04-30T14:50:24.187Z,147717.78
2023-04-30T14:52:51.525Z,147726.34
2023-04-30T14:55:18.630Z,147700.66
2023-04-30T14:57:45.639Z,147664.00
2023-04-30T15:00:13.383Z,147732.47
2023-04-30T15:02:40.641Z,147785.00
2023-04-30T15:05:08.611Z,147855.88
2023-04-30T15:07:36.740Z,147892.56
2023-04-30T15:10:04.354Z,148034.44
2023-04-30T15:12:31.490Z,148150.72
2023-04-30T15:14:58.496Z,148204.53
2023-04-30T15:17:25.699Z,148314.66
2023-04-30T15:19:53.931Z,148142.13
2023-04-30T15:22:22.447Z,148035.72
2023-04-30T15:24:50.053Z,148006.34
2023-04-30T15:27:17.142Z,147851.00
2023-04-30T15:29:46.193Z,148038.13
2023-04-30T15:32:13.790Z,148297.56
2023-04-30T15:34:40.870Z,148470.16
2023-04-30T15:37:07.938Z,148767.88
2023-04-30T15:39:35.376Z,148727.44
2023-04-30T15:42:02.362Z,148731.13
2023-04-30T15:44:29.420Z,148826.72
2023-04-30T15:46:56.701Z,148646.59
2023-04-30T15:49:23.867Z,148557.16
2023-04-30T15:51:51.262Z,148375.94
2023-04-30T15:54:18.512Z,148069.94
2023-04-30T15:56:45.559Z,147981.88
2023-04-30T15:59:17.422Z,148260.84
2023-04-30T16:01:45.528Z,148613.47
2023-04-30T16:04:12.856Z,148883.06
2023-04-30T16:06:40.077Z,148755.63
2023-04-30T16:09:08.686Z,148763.00
2023-04-30T16:11:36.124Z,148660.06
2023-04-30T16:14:03.187Z,148691.91
2023-04-30T16:16:30.350Z,148797.28
2023-04-30T16:18:57.566Z,149071.88
2023-04-30T16:21:24.599Z,149155.31
2023-04-30T16:23:51.603Z,148941.94
2023-04-30T16:26:18.649Z,148961.56
2023-04-30T16:28:47.140Z,148887.97
2023-04-30T16:31:15.577Z,149053.50
2023-04-30T16:33:43.878Z,149255.91
2023-04-30T16:36:11.058Z,149356.53
2023-04-30T16:38:38.193Z,149195.78
2023-04-30T16:41:05.540Z,149114.88
2023-04-30T16:43:32.552Z,148993.41
2023-04-30T16:45:59.632Z,148845.09
2023-04-30T16:48:26.689Z,148755.63
2023-04-30T16:50:53.671Z,148689.44
2023-04-30T16:53:21.670Z,148246.19
2023-04-30T16:55:48.699Z,147952.56
2023-04-30T16:58:16.583Z,147793.56
2023-04-30T17:00:43.583Z,147626.09
2023-04-30T17:03:10.745Z,147571.13
2023-04-30T17:05:37.874Z,147595.59
2023-04-30T17:08:05.430Z,147563.81
2023-04-30T17:10:32.566Z,147536.94
2023-04-30T17:13:02.017Z,147524.72
2023-04-30T17:15:29.263Z,147550.38
2023-04-30T17:17:57.704Z,147492.94
2023-04-30T17:20:24.840Z,147566.25
2023-04-30T17:22:53.262Z,147725.13
2023-04-30T17:25:20.485Z,148034.44
2023-04-30T17:27:47.888Z,148199.63
2023-04-30T17:30:15.302Z,148263.28
2023-04-30T17:32:43.495Z,148052.78
2023-04-30T17:35:10.849Z,147818.00
2023-04-30T17:37:37.840Z,147778.91
2023-04-30T17:40:05.741Z,147551.59
2023-04-30T17:42:35.463Z,147517.41
2023-04-30T17:45:02.526Z,147350.03
2023-04-30T17:47:29.546Z,147318.31
2023-04-30T17:49:57.258Z,147245.03
2023-04-30T17:52:24.583Z,147280.47
2023-04-30T17:54:51.848Z,147251.16
2023-04-30T17:57:18.853Z,147212.06
2023-04-30T17:59:45.910Z,147194.97
2023-04-30T18:02:13.124Z,147140.06
2023-04-30T18:04:40.208Z,147153.50
2023-04-30T18:07:08.190Z,147109.59
2023-04-30T18:09:35.896Z,147087.63
2023-04-30T18:12:03.744Z,147054.69
2023-04-30T18:14:30.857Z,147010.78
2023-04-30T18:16:58.030Z,147002.22
2023-04-30T18:19:25.311Z,147001.00
2023-04-30T18:21:56.683Z,146925.34
2023-04-30T18:24:28.275Z,146954.63
2023-04-30T18:26:55.958Z,146938.75
2023-04-30T18:29:23.492Z,146921.72
2023-04-30T18:31:50.632Z,146890.00
2023-04-30T18:34:17.673Z,146858.31
2023-04-30T18:36:44.875Z,146829.00
2023-04-30T18:39:12.366Z,146792.44
2023-04-30T18:41:39.390Z,146799.78
2023-04-30T18:44:09.476Z,146758.34
2023-04-30T18:46:36.681Z,146755.88
2023-04-30T18:49:05.355Z,146716.91
2023-04-30T18:51:32.374Z,146704.66
2023-04-30T18:53:59.917Z,146668.09
2023-04-30T18:56:26.996Z,146668.09
2023-04-30T18:58:54.055Z,146607.19
2023-04-30T19:01:21.624Z,146623.00
2023-04-30T19:03:48.749Z,146598.66
2023-04-30T19:06:15.853Z,146594.97
2023-04-30T19:08:45.600Z,146573.03
2023-04-30T19:11:13.864Z,146552.34
2023-04-30T19:13:40.978Z,146524.34
2023-04-30T19:16:08.229Z,146489.00
2023-04-30T19:18:36.351Z,146470.75
2023-04-30T19:21:05.267Z,146441.47
2023-04-30T19:23:32.358Z,146415.94
2023-04-30T19:25:59.758Z,146323.38
2023-04-30T19:28:27.220Z,146346.50
2023-04-30T19:30:54.986Z,146300.25
2023-04-30T19:33:23.218Z,146253.94
2023-04-30T19:35:54.783Z,146277.06
2023-04-30T19:38:21.994Z,146263.72
2023-04-30T19:40:52.121Z,146222.28
2023-04-30T19:43:20.026Z,146234.47
2023-04-30T19:45:51.188Z,146224.75
2023-04-30T19:48:18.396Z,146197.97
2023-04-30T19:50:46.677Z,146190.69
2023-04-30T19:53:14.973Z,146184.56
2023-04-30T19:55:42.663Z,146123.75
2023-04-30T19:58:10.067Z,146161.47
2023-04-30T20:00:38.586Z,146156.59
2023-04-30T20:03:05.829Z,146139.56
2023-04-30T20:05:35.254Z,146124.97
2023-04-30T20:08:03.457Z,146110.38
2023-04-30T20:10:31.214Z,146100.63
2023-04-30T20:12:58.252Z,146090.91
2023-04-30T20:15:25.999Z,146071.38
2023-04-30T20:17:53.273Z,146026.41
2023-04-30T20:20:23.730Z,146027.59
2023-04-30T20:22:52.631Z,146039.75
2023-04-30T20:25:20.931Z,146022.75
2023-04-30T20:27:48.211Z,145985.00
2023-04-30T20:30:15.302Z,145988.66
2023-04-30T20:32:42.357Z,145978.94
2023-04-30T20:35:09.625Z,145976.53
2023-04-30T20:37:37.578Z,145959.50
2023-04-30T20:40:07.957Z,145944.91
2023-04-30T20:42:35.624Z,145931.53
2023-04-30T20:45:05.754Z,145908.44
2023-04-30T20:47:33.204Z,145890.19
2023-04-30T20:50:00.408Z,145876.81
2023-04-30T20:52:27.712Z,145876.81
2023-04-30T20:54:54.856Z,145848.84
2023-04-30T20:57:21.920Z,145831.81
2023-04-30T20:59:49.030Z,145789.28
2023-04-30T21:02:16.318Z,145800.22
2023-04-30T21:04:43.399Z,145774.66
2023-04-30T21:07:10.382Z,145813.59
2023-04-30T21:09:38.313Z,145764.94
2023-04-30T21:12:06.159Z,145745.50
2023-04-30T21:14:34.051Z,145784.38
2023-04-30T21:17:01.307Z,145738.19
2023-04-30T21:19:28.559Z,145752.81
2023-04-30T21:21:55.675Z,145750.38
2023-04-30T21:24:22.670Z,145743.06
2023-04-30T21:26:49.641Z,145716.38
2023-04-30T21:29:16.721Z,145713.91
2023-04-30T21:31:44.208Z,145665.25
2023-04-30T21:34:11.248Z,145690.78
2023-04-30T21:36:38.230Z,145691.97
2023-04-30T21:39:05.569Z,145640.97
2023-04-30T21:41:32.871Z,145653.13
2023-04-30T21:44:00.151Z,145654.31
2023-04-30T21:46:27.382Z,145642.16
2023-04-30T21:48:54.521Z,145631.25
2023-04-30T21:51:22.188Z,145628.78
2023-04-30T21:53:49.623Z,145620.31
2023-04-30T21:56:16.743Z,145610.56
2023-04-30T21:58:43.741Z,145611.81
2023-04-30T22:01:12.264Z,145594.78
2023-04-30T22:03:41.957Z,145592.34
2023-04-30T22:06:09.068Z,145591.13
2023-04-30T22:08:36.258Z,145589.94
2023-04-30T22:11:04.554Z,145568.06
2023-04-30T22:13:31.561Z,145541.34
2023-04-30T22:15:58.723Z,145538.94
2023-04-30T22:18:25.875Z,145512.19
2023-04-30T22:20:52.953Z,145483.03
2023-04-30T22:23:21.202Z,145416.28
2023-04-30T22:25:48.667Z,145507.34
2023-04-30T22:28:16.912Z,145478.16
2023-04-30T22:30:45.085Z,145478.16
2023-04-30T22:33:12.668Z,145463.63
2023-04-30T22:35:39.926Z,145415.03
2023-04-30T22:38:07.506Z,145444.19
2023-04-30T22:40:38.391Z,145425.97
2023-04-30T22:43:05.946Z,145449.03
2023-04-30T22:45:36.919Z,145445.41
2023-04-30T22:48:04.556Z,145439.34
2023-04-30T22:50:31.908Z,145415.03
2023-04-30T22:52:59.633Z,145432.03
2023-04-30T22:55:27.209Z,145393.22
2023-04-30T22:57:54.293Z,145434.47
2023-04-30T23:00:21.281Z,145424.78
2023-04-30T23:02:48.722Z,145434.47
2023-04-30T23:05:15.940Z,145419.94
2023-04-30T23:07:43.083Z,145422.31
2023-04-30T23:10:10.715Z,145423.53
2023-04-30T23:12:37.734Z,145424.78
2023-04-30T23:15:05.193Z,145331.28
2023-04-30T23:17:32.359Z,145408.97
2023-04-30T23:19:59.410Z,145399.25
2023-04-30T23:22:26.696Z,145381.06
2023-04-30T23:24:55.377Z,145385.91
2023-04-30T23:27:23.567Z,145425.97
2023-04-30T23:29:50.713Z,145401.72
2023-04-30T23:32:18.198Z,145405.31
2023-04-30T23:34:45.294Z,145395.63
2023-04-30T23:37:12.291Z,145400.47
2023-04-30T23:39:39.373Z,145364.03
2023-04-30T23:42:07.814Z,145381.06
2023-04-30T23:44:34.866Z,145419.94
2023-04-30T23:47:01.914Z,145417.47
2023-04-30T23:49:28.969Z,145418.69
2023-04-30T23:51:55.958Z,145399.25
2023-04-30T23:54:23.231Z,145400.47
2023-04-30T23:56:50.335Z,145385.91
2023-04-30T23:59:17.317Z,145412.63
